Terminal Aerodrome Forecast
Issued by NWS Cleveland, OH

Home | Current Version | Previous Version | Graphics & Text | Print | Product List | Glossary Off
Versions: 1 2 3 4 5 6 7 8 9 10 11 12 13 14 15 16

000
FTUS41 KCLE 212300
TAFCAK
TAF
KCAK 212324Z 2200/2224 12005KT P6SM OVC022
     FM220400 12005KT 6SM BR SCT020 BKN250
      TEMPO 2204/2206 4SM BR
     FM220600 12005KT 5SM BR SCT020 BKN250
      TEMPO 2209/2213 3SM BR BKN020
     FM221400 14006KT P6SM SCT040 BKN120
     FM221800 14006KT P6SM BKN035
     FM222200 14008KT P6SM OVC025=

USA.gov is the U.S. government's official web portal to all federal, state and local government web resources and services.